Ashland, Montana
Current Conditions -  °F | °C
As of 8:53 AM on Thursday 18 Dec 2014 (Local Time) from KMLS Reporting Station
Clear Clear  
Wind Chill: -8°   Ceiling: Unl
Heat Index: -4°   Visibility: 7mi
Dew Point: -6°   Wind: 7mph
Humidity: 88%   Direction: 200°SSW
Pressure: 29.97"   Gusts: NA
Location:  45.62°N, 106.31°W
Report Text: KMLS 181553Z AUTO 20006KT 7SM CLR M04/M06 A2997 RMK AO2 SLP182 T10391056
Loading
Personal Weather Stations






























Interactive Weather Map New forecast layout! Learn more

10-Day Weather Forecast

Advertisements
Track Severe Weather on mobile